Weather at Kelansam Airstrip

Public forecast

Using degrees Celsius for public forecast. Weather courtesy of forecast.io.

Closest aviation weather report (METAR) to Kelansam Airstrip

Closest report is Simanggang Airport, 66.0 nm (122.3 km) N.

(retrieved 0 seconds ago)

Closest aviation forecast (TAF) to Kelansam Airstrip

Forecast is more than 12 hours old.

Closest forecast is Sultan Aji Muhammad Sulaiman Sepinggan International Airport, 339.1 nm (628.1 km) ESE.

2024/06/21 06:00 (retrieved 23 hours ago)

TAF WALL 210500Z 2106/2212 22007KT 9999 FEW018CB FEW018 BECMG 2107/2109 FEW018